sensor_id;sensor_type;location;lat;lon;timestamp;P1;durP1;ratioP1;P2;durP2;ratioP2
67065;SDS011;53978;43.846;25.952;2022-12-20T00:01:12;9.88;;;5.50;;
67065;SDS011;53978;43.846;25.952;2022-12-20T00:03:40;11.35;;;5.95;;
67065;SDS011;53978;43.846;25.952;2022-12-20T00:06:08;14.02;;;5.28;;
67065;SDS011;53978;43.846;25.952;2022-12-20T00:08:35;11.65;;;5.72;;
67065;SDS011;53978;43.846;25.952;2022-12-20T00:11:04;13.40;;;5.60;;
67065;SDS011;53978;43.846;25.952;2022-12-20T00:13:31;10.57;;;5.78;;
67065;SDS011;53978;43.846;25.952;2022-12-20T00:16:07;14.90;;;7.30;;
67065;SDS011;53978;43.846;25.952;2022-12-20T00:18:40;11.45;;;6.65;;
67065;SDS011;53978;43.846;25.952;2022-12-20T00:21:07;10.82;;;5.60;;
67065;SDS011;53978;43.846;25.952;2022-12-20T00:23:34;11.93;;;6.80;;
67065;SDS011;53978;43.846;25.952;2022-12-20T00:26:07;10.50;;;5.15;;
67065;SDS011;53978;43.846;25.952;2022-12-20T00:28:36;9.60;;;5.60;;
67065;SDS011;53978;43.846;25.952;2022-12-20T00:31:03;10.95;;;5.10;;
67065;SDS011;53978;43.846;25.952;2022-12-20T00:33:29;14.93;;;6.40;;
67065;SDS011;53978;43.846;25.952;2022-12-20T00:35:55;13.02;;;6.22;;
67065;SDS011;53978;43.846;25.952;2022-12-20T00:38:21;12.13;;;6.00;;
67065;SDS011;53978;43.846;25.952;2022-12-20T00:40:57;12.90;;;5.90;;
67065;SDS011;53978;43.846;25.952;2022-12-20T00:43:44;12.98;;;5.18;;
67065;SDS011;53978;43.846;25.952;2022-12-20T00:46:10;10.63;;;5.68;;
67065;SDS011;53978;43.846;25.952;2022-12-20T00:48:38;11.77;;;5.28;;
67065;SDS011;53978;43.846;25.952;2022-12-20T00:51:13;7.70;;;4.25;;
67065;SDS011;53978;43.846;25.952;2022-12-20T00:53:41;14.27;;;5.72;;
67065;SDS011;53978;43.846;25.952;2022-12-20T00:56:07;10.70;;;5.22;;
67065;SDS011;53978;43.846;25.952;2022-12-20T00:58:34;10.05;;;5.22;;
67065;SDS011;53978;43.846;25.952;2022-12-20T01:01:00;8.48;;;5.03;;
67065;SDS011;53978;43.846;25.952;2022-12-20T01:03:27;17.20;;;5.72;;
67065;SDS011;53978;43.846;25.952;2022-12-20T01:05:53;11.80;;;6.15;;
67065;SDS011;53978;43.846;25.952;2022-12-20T01:08:19;12.48;;;4.50;;
67065;SDS011;53978;43.846;25.952;2022-12-20T01:10:45;14.57;;;5.78;;
67065;SDS011;53978;43.846;25.952;2022-12-20T01:13:11;12.25;;;5.55;;
67065;SDS011;53978;43.846;25.952;2022-12-20T01:15:37;13.00;;;6.13;;
67065;SDS011;53978;43.846;25.952;2022-12-20T01:18:02;13.20;;;6.38;;
67065;SDS011;53978;43.846;25.952;2022-12-20T01:20:28;10.82;;;5.32;;
67065;SDS011;53978;43.846;25.952;2022-12-20T01:22:53;9.43;;;5.18;;
67065;SDS011;53978;43.846;25.952;2022-12-20T01:25:18;13.85;;;6.25;;
67065;SDS011;53978;43.846;25.952;2022-12-20T01:27:44;10.63;;;5.13;;
67065;SDS011;53978;43.846;25.952;2022-12-20T01:30:09;10.70;;;6.15;;
67065;SDS011;53978;43.846;25.952;2022-12-20T01:32:35;10.57;;;4.47;;
67065;SDS011;53978;43.846;25.952;2022-12-20T01:35:05;16.35;;;6.03;;
67065;SDS011;53978;43.846;25.952;2022-12-20T01:37:31;11.95;;;5.70;;
67065;SDS011;53978;43.846;25.952;2022-12-20T01:39:56;12.52;;;5.57;;
67065;SDS011;53978;43.846;25.952;2022-12-20T01:42:24;12.05;;;5.78;;
67065;SDS011;53978;43.846;25.952;2022-12-20T01:44:53;8.95;;;5.15;;
67065;SDS011;53978;43.846;25.952;2022-12-20T01:47:20;9.85;;;5.85;;
67065;SDS011;53978;43.846;25.952;2022-12-20T01:49:46;11.10;;;5.20;;
67065;SDS011;53978;43.846;25.952;2022-12-20T01:52:17;11.70;;;5.63;;
67065;SDS011;53978;43.846;25.952;2022-12-20T01:55:07;10.68;;;5.97;;
67065;SDS011;53978;43.846;25.952;2022-12-20T01:57:56;15.80;;;5.78;;
67065;SDS011;53978;43.846;25.952;2022-12-20T02:00:24;10.88;;;5.78;;
67065;SDS011;53978;43.846;25.952;2022-12-20T02:02:50;11.40;;;5.90;;
67065;SDS011;53978;43.846;25.952;2022-12-20T02:05:16;14.80;;;5.78;;
67065;SDS011;53978;43.846;25.952;2022-12-20T02:07:43;10.18;;;5.03;;
67065;SDS011;53978;43.846;25.952;2022-12-20T02:10:10;10.52;;;5.82;;
67065;SDS011;53978;43.846;25.952;2022-12-20T02:12:40;14.68;;;6.22;;
67065;SDS011;53978;43.846;25.952;2022-12-20T02:20:53;9.32;;;5.00;;
67065;SDS011;53978;43.846;25.952;2022-12-20T02:23:42;7.90;;;4.55;;
67065;SDS011;53978;43.846;25.952;2022-12-20T02:29:27;8.68;;;4.45;;
67065;SDS011;53978;43.846;25.952;2022-12-20T02:31:39;9.30;;;5.45;;
67065;SDS011;53978;43.846;25.952;2022-12-20T02:34:08;11.32;;;5.97;;
67065;SDS011;53978;43.846;25.952;2022-12-20T02:36:34;12.25;;;5.88;;
67065;SDS011;53978;43.846;25.952;2022-12-20T02:39:00;16.10;;;6.28;;
67065;SDS011;53978;43.846;25.952;2022-12-20T02:41:26;15.00;;;5.60;;
67065;SDS011;53978;43.846;25.952;2022-12-20T02:43:56;16.13;;;5.75;;
67065;SDS011;53978;43.846;25.952;2022-12-20T02:46:59;10.60;;;5.25;;
67065;SDS011;53978;43.846;25.952;2022-12-20T02:49:31;12.60;;;5.82;;
67065;SDS011;53978;43.846;25.952;2022-12-20T02:51:58;9.25;;;5.38;;
67065;SDS011;53978;43.846;25.952;2022-12-20T02:54:24;13.85;;;6.20;;
67065;SDS011;53978;43.846;25.952;2022-12-20T02:59:22;12.15;;;5.95;;
67065;SDS011;53978;43.846;25.952;2022-12-20T03:01:50;13.25;;;6.30;;
67065;SDS011;53978;43.846;25.952;2022-12-20T03:04:17;10.80;;;5.90;;
67065;SDS011;53978;43.846;25.952;2022-12-20T03:06:55;13.48;;;6.40;;
67065;SDS011;53978;43.846;25.952;2022-12-20T03:09:21;11.15;;;5.80;;
67065;SDS011;53978;43.846;25.952;2022-12-20T03:11:47;17.25;;;6.75;;
67065;SDS011;53978;43.846;25.952;2022-12-20T03:14:12;14.32;;;5.97;;
67065;SDS011;53978;43.846;25.952;2022-12-20T03:16:38;13.85;;;6.32;;
67065;SDS011;53978;43.846;25.952;2022-12-20T03:19:05;14.85;;;5.35;;
67065;SDS011;53978;43.846;25.952;2022-12-20T03:21:31;11.05;;;5.78;;
67065;SDS011;53978;43.846;25.952;2022-12-20T03:23:56;15.40;;;6.45;;
67065;SDS011;53978;43.846;25.952;2022-12-20T03:26:24;10.63;;;5.65;;
67065;SDS011;53978;43.846;25.952;2022-12-20T03:28:49;14.63;;;5.82;;
67065;SDS011;53978;43.846;25.952;2022-12-20T03:31:15;16.70;;;6.20;;
67065;SDS011;53978;43.846;25.952;2022-12-20T03:33:41;15.63;;;6.65;;
67065;SDS011;53978;43.846;25.952;2022-12-20T03:36:06;10.30;;;5.72;;
67065;SDS011;53978;43.846;25.952;2022-12-20T03:38:32;13.88;;;7.05;;
67065;SDS011;53978;43.846;25.952;2022-12-20T03:40:57;12.50;;;6.07;;
67065;SDS011;53978;43.846;25.952;2022-12-20T03:43:22;12.73;;;6.03;;
67065;SDS011;53978;43.846;25.952;2022-12-20T03:45:48;15.07;;;6.40;;
67065;SDS011;53978;43.846;25.952;2022-12-20T03:48:13;13.55;;;5.50;;
67065;SDS011;53978;43.846;25.952;2022-12-20T03:50:39;9.27;;;5.30;;
67065;SDS011;53978;43.846;25.952;2022-12-20T03:53:05;11.25;;;6.00;;
67065;SDS011;53978;43.846;25.952;2022-12-20T03:55:30;13.73;;;6.50;;
67065;SDS011;53978;43.846;25.952;2022-12-20T03:57:56;16.42;;;6.05;;
67065;SDS011;53978;43.846;25.952;2022-12-20T04:00:21;12.77;;;6.20;;
67065;SDS011;53978;43.846;25.952;2022-12-20T04:02:46;10.93;;;6.28;;
67065;SDS011;53978;43.846;25.952;2022-12-20T04:05:12;18.92;;;6.80;;
67065;SDS011;53978;43.846;25.952;2022-12-20T04:07:45;16.17;;;7.35;;
67065;SDS011;53978;43.846;25.952;2022-12-20T04:10:10;15.45;;;6.60;;
67065;SDS011;53978;43.846;25.952;2022-12-20T04:12:38;11.55;;;6.00;;
67065;SDS011;53978;43.846;25.952;2022-12-20T04:15:03;19.65;;;7.68;;
67065;SDS011;53978;43.846;25.952;2022-12-20T04:17:29;15.60;;;6.75;;
67065;SDS011;53978;43.846;25.952;2022-12-20T04:19:54;12.68;;;6.03;;
67065;SDS011;53978;43.846;25.952;2022-12-20T04:22:20;16.67;;;6.85;;
67065;SDS011;53978;43.846;25.952;2022-12-20T04:24:45;13.13;;;6.50;;
67065;SDS011;53978;43.846;25.952;2022-12-20T04:27:11;15.18;;;6.05;;
67065;SDS011;53978;43.846;25.952;2022-12-20T04:29:36;17.83;;;7.43;;
67065;SDS011;53978;43.846;25.952;2022-12-20T04:32:02;18.38;;;6.90;;
67065;SDS011;53978;43.846;25.952;2022-12-20T04:34:27;22.50;;;7.63;;
67065;SDS011;53978;43.846;25.952;2022-12-20T04:36:53;17.83;;;7.72;;
67065;SDS011;53978;43.846;25.952;2022-12-20T04:39:18;15.05;;;7.90;;
67065;SDS011;53978;43.846;25.952;2022-12-20T04:41:43;17.25;;;6.72;;
67065;SDS011;53978;43.846;25.952;2022-12-20T04:44:09;20.65;;;7.82;;
67065;SDS011;53978;43.846;25.952;2022-12-20T04:46:34;16.48;;;6.63;;
67065;SDS011;53978;43.846;25.952;2022-12-20T04:49:00;17.15;;;6.72;;
67065;SDS011;53978;43.846;25.952;2022-12-20T04:51:26;13.25;;;5.45;;
67065;SDS011;53978;43.846;25.952;2022-12-20T04:53:51;20.23;;;7.65;;
67065;SDS011;53978;43.846;25.952;2022-12-20T04:56:21;16.63;;;8.00;;
67065;SDS011;53978;43.846;25.952;2022-12-20T04:58:49;20.40;;;8.55;;
67065;SDS011;53978;43.846;25.952;2022-12-20T05:01:15;14.85;;;7.82;;
67065;SDS011;53978;43.846;25.952;2022-12-20T05:03:41;14.32;;;7.43;;
67065;SDS011;53978;43.846;25.952;2022-12-20T05:06:06;20.42;;;7.57;;
67065;SDS011;53978;43.846;25.952;2022-12-20T05:08:34;16.23;;;7.65;;
67065;SDS011;53978;43.846;25.952;2022-12-20T05:11:03;14.32;;;6.50;;
67065;SDS011;53978;43.846;25.952;2022-12-20T05:13:31;12.68;;;6.32;;
67065;SDS011;53978;43.846;25.952;2022-12-20T05:15:57;13.98;;;6.40;;
67065;SDS011;53978;43.846;25.952;2022-12-20T05:18:23;14.60;;;6.65;;
67065;SDS011;53978;43.846;25.952;2022-12-20T05:20:50;15.82;;;6.57;;
67065;SDS011;53978;43.846;25.952;2022-12-20T05:23:35;12.70;;;6.65;;
67065;SDS011;53978;43.846;25.952;2022-12-20T05:26:20;17.38;;;6.80;;
67065;SDS011;53978;43.846;25.952;2022-12-20T05:28:47;16.63;;;7.13;;
67065;SDS011;53978;43.846;25.952;2022-12-20T05:31:12;15.20;;;7.18;;
67065;SDS011;53978;43.846;25.952;2022-12-20T05:33:38;16.10;;;7.18;;
67065;SDS011;53978;43.846;25.952;2022-12-20T05:36:06;20.67;;;7.82;;
67065;SDS011;53978;43.846;25.952;2022-12-20T05:38:32;14.57;;;7.55;;
67065;SDS011;53978;43.846;25.952;2022-12-20T05:40:57;13.02;;;6.03;;
67065;SDS011;53978;43.846;25.952;2022-12-20T05:43:22;13.50;;;6.93;;
67065;SDS011;53978;43.846;25.952;2022-12-20T05:45:51;17.08;;;8.10;;
67065;SDS011;53978;43.846;25.952;2022-12-20T05:48:18;13.50;;;7.07;;
67065;SDS011;53978;43.846;25.952;2022-12-20T05:50:46;16.20;;;7.25;;
67065;SDS011;53978;43.846;25.952;2022-12-20T05:53:12;20.40;;;8.27;;
67065;SDS011;53978;43.846;25.952;2022-12-20T05:55:47;17.60;;;7.45;;
67065;SDS011;53978;43.846;25.952;2022-12-20T05:58:13;19.58;;;8.23;;
67065;SDS011;53978;43.846;25.952;2022-12-20T06:00:42;17.67;;;7.80;;
67065;SDS011;53978;43.846;25.952;2022-12-20T06:03:08;20.40;;;7.80;;
67065;SDS011;53978;43.846;25.952;2022-12-20T06:05:35;18.30;;;7.07;;
67065;SDS011;53978;43.846;25.952;2022-12-20T06:08:02;20.23;;;8.02;;
67065;SDS011;53978;43.846;25.952;2022-12-20T06:10:29;24.27;;;10.55;;
67065;SDS011;53978;43.846;25.952;2022-12-20T06:12:54;24.98;;;11.27;;
67065;SDS011;53978;43.846;25.952;2022-12-20T06:15:20;30.25;;;15.32;;
67065;SDS011;53978;43.846;25.952;2022-12-20T06:17:48;38.95;;;20.13;;
67065;SDS011;53978;43.846;25.952;2022-12-20T06:20:18;29.25;;;15.75;;
67065;SDS011;53978;43.846;25.952;2022-12-20T06:22:46;22.88;;;9.98;;
67065;SDS011;53978;43.846;25.952;2022-12-20T06:25:12;27.35;;;11.38;;
67065;SDS011;53978;43.846;25.952;2022-12-20T06:27:39;50.50;;;11.68;;
67065;SDS011;53978;43.846;25.952;2022-12-20T06:30:05;21.45;;;10.52;;
67065;SDS011;53978;43.846;25.952;2022-12-20T06:32:32;25.83;;;8.90;;
67065;SDS011;53978;43.846;25.952;2022-12-20T06:34:58;22.95;;;9.38;;
67065;SDS011;53978;43.846;25.952;2022-12-20T06:37:23;21.42;;;8.40;;
67065;SDS011;53978;43.846;25.952;2022-12-20T06:39:48;27.90;;;10.02;;
67065;SDS011;53978;43.846;25.952;2022-12-20T06:42:14;17.33;;;8.98;;
67065;SDS011;53978;43.846;25.952;2022-12-20T06:44:42;20.58;;;8.80;;
67065;SDS011;53978;43.846;25.952;2022-12-20T06:47:08;22.70;;;9.20;;
67065;SDS011;53978;43.846;25.952;2022-12-20T06:49:34;20.35;;;9.20;;
67065;SDS011;53978;43.846;25.952;2022-12-20T06:51:59;22.52;;;9.32;;
67065;SDS011;53978;43.846;25.952;2022-12-20T06:54:24;19.40;;;9.40;;
67065;SDS011;53978;43.846;25.952;2022-12-20T06:56:50;26.00;;;10.80;;
67065;SDS011;53978;43.846;25.952;2022-12-20T06:59:15;23.45;;;10.30;;
67065;SDS011;53978;43.846;25.952;2022-12-20T07:01:41;28.15;;;11.38;;
67065;SDS011;53978;43.846;25.952;2022-12-20T07:04:06;23.17;;;10.30;;
67065;SDS011;53978;43.846;25.952;2022-12-20T07:06:31;22.30;;;10.15;;
67065;SDS011;53978;43.846;25.952;2022-12-20T07:08:59;20.33;;;10.07;;
67065;SDS011;53978;43.846;25.952;2022-12-20T07:11:26;32.05;;;13.65;;
67065;SDS011;53978;43.846;25.952;2022-12-20T07:14:10;29.85;;;12.77;;
67065;SDS011;53978;43.846;25.952;2022-12-20T07:16:38;25.13;;;11.32;;
67065;SDS011;53978;43.846;25.952;2022-12-20T07:19:11;18.77;;;8.90;;
67065;SDS011;53978;43.846;25.952;2022-12-20T07:21:37;28.67;;;10.23;;
67065;SDS011;53978;43.846;25.952;2022-12-20T07:24:03;24.75;;;11.02;;
67065;SDS011;53978;43.846;25.952;2022-12-20T07:26:28;24.63;;;11.20;;
67065;SDS011;53978;43.846;25.952;2022-12-20T07:28:54;22.35;;;9.80;;
67065;SDS011;53978;43.846;25.952;2022-12-20T07:31:19;19.77;;;9.43;;
67065;SDS011;53978;43.846;25.952;2022-12-20T07:33:47;22.27;;;8.60;;
67065;SDS011;53978;43.846;25.952;2022-12-20T07:36:13;21.80;;;10.45;;
67065;SDS011;53978;43.846;25.952;2022-12-20T07:38:40;19.70;;;8.95;;
67065;SDS011;53978;43.846;25.952;2022-12-20T07:41:08;19.60;;;9.45;;
67065;SDS011;53978;43.846;25.952;2022-12-20T07:43:34;21.58;;;10.85;;
67065;SDS011;53978;43.846;25.952;2022-12-20T07:46:00;18.33;;;8.98;;
67065;SDS011;53978;43.846;25.952;2022-12-20T07:48:29;20.83;;;10.00;;
67065;SDS011;53978;43.846;25.952;2022-12-20T07:50:55;22.38;;;10.25;;
67065;SDS011;53978;43.846;25.952;2022-12-20T07:53:23;26.42;;;9.52;;
67065;SDS011;53978;43.846;25.952;2022-12-20T07:55:49;34.08;;;13.43;;
67065;SDS011;53978;43.846;25.952;2022-12-20T07:58:18;33.35;;;14.55;;
67065;SDS011;53978;43.846;25.952;2022-12-20T08:00:44;22.27;;;10.85;;
67065;SDS011;53978;43.846;25.952;2022-12-20T08:03:17;21.95;;;10.00;;
67065;SDS011;53978;43.846;25.952;2022-12-20T08:05:46;25.13;;;11.05;;
67065;SDS011;53978;43.846;25.952;2022-12-20T08:08:13;25.13;;;10.13;;
67065;SDS011;53978;43.846;25.952;2022-12-20T08:10:39;27.15;;;10.93;;
67065;SDS011;53978;43.846;25.952;2022-12-20T08:13:05;22.92;;;11.18;;
67065;SDS011;53978;43.846;25.952;2022-12-20T08:15:32;22.35;;;10.27;;
67065;SDS011;53978;43.846;25.952;2022-12-20T08:17:58;20.88;;;9.93;;
67065;SDS011;53978;43.846;25.952;2022-12-20T08:20:23;14.70;;;7.38;;
67065;SDS011;53978;43.846;25.952;2022-12-20T08:22:49;23.95;;;10.00;;
67065;SDS011;53978;43.846;25.952;2022-12-20T08:25:16;21.40;;;9.40;;
67065;SDS011;53978;43.846;25.952;2022-12-20T08:27:55;20.25;;;10.45;;
67065;SDS011;53978;43.846;25.952;2022-12-20T08:30:26;25.50;;;11.15;;
67065;SDS011;53978;43.846;25.952;2022-12-20T08:33:06;29.75;;;9.50;;
67065;SDS011;53978;43.846;25.952;2022-12-20T08:35:33;22.95;;;10.77;;
67065;SDS011;53978;43.846;25.952;2022-12-20T08:37:59;25.83;;;10.75;;
67065;SDS011;53978;43.846;25.952;2022-12-20T08:40:24;33.67;;;10.70;;
67065;SDS011;53978;43.846;25.952;2022-12-20T08:42:50;30.88;;;10.23;;
67065;SDS011;53978;43.846;25.952;2022-12-20T08:45:15;22.15;;;9.30;;
67065;SDS011;53978;43.846;25.952;2022-12-20T08:47:42;20.95;;;9.73;;
67065;SDS011;53978;43.846;25.952;2022-12-20T08:50:08;45.60;;;12.48;;
67065;SDS011;53978;43.846;25.952;2022-12-20T08:52:34;37.50;;;12.20;;
67065;SDS011;53978;43.846;25.952;2022-12-20T08:54:59;25.88;;;10.13;;
67065;SDS011;53978;43.846;25.952;2022-12-20T08:57:25;30.67;;;9.38;;
67065;SDS011;53978;43.846;25.952;2022-12-20T08:59:50;26.65;;;11.88;;
67065;SDS011;53978;43.846;25.952;2022-12-20T09:02:15;22.77;;;10.30;;
67065;SDS011;53978;43.846;25.952;2022-12-20T09:04:44;28.20;;;10.07;;
67065;SDS011;53978;43.846;25.952;2022-12-20T09:07:09;23.63;;;10.60;;
67065;SDS011;53978;43.846;25.952;2022-12-20T09:09:35;20.67;;;9.65;;
67065;SDS011;53978;43.846;25.952;2022-12-20T09:12:03;33.58;;;10.95;;
67065;SDS011;53978;43.846;25.952;2022-12-20T09:14:30;36.42;;;12.00;;
67065;SDS011;53978;43.846;25.952;2022-12-20T09:16:56;21.85;;;9.75;;
67065;SDS011;53978;43.846;25.952;2022-12-20T09:19:23;27.50;;;10.35;;
67065;SDS011;53978;43.846;25.952;2022-12-20T09:21:49;19.88;;;10.05;;
67065;SDS011;53978;43.846;25.952;2022-12-20T09:24:14;21.05;;;10.07;;
67065;SDS011;53978;43.846;25.952;2022-12-20T09:26:41;24.23;;;10.70;;
67065;SDS011;53978;43.846;25.952;2022-12-20T09:29:06;25.10;;;10.73;;
67065;SDS011;53978;43.846;25.952;2022-12-20T09:31:39;23.40;;;10.23;;
67065;SDS011;53978;43.846;25.952;2022-12-20T09:34:05;20.23;;;8.98;;
67065;SDS011;53978;43.846;25.952;2022-12-20T09:36:30;24.58;;;10.35;;
67065;SDS011;53978;43.846;25.952;2022-12-20T09:38:56;21.88;;;10.98;;
67065;SDS011;53978;43.846;25.952;2022-12-20T09:41:40;28.33;;;12.95;;
67065;SDS011;53978;43.846;25.952;2022-12-20T09:46:41;22.23;;;9.98;;
67065;SDS011;53978;43.846;25.952;2022-12-20T09:49:10;34.03;;;10.30;;
67065;SDS011;53978;43.846;25.952;2022-12-20T09:54:44;25.50;;;10.60;;
67065;SDS011;53978;43.846;25.952;2022-12-20T09:57:17;22.55;;;10.32;;
67065;SDS011;53978;43.846;25.952;2022-12-20T09:59:49;22.38;;;10.32;;
67065;SDS011;53978;43.846;25.952;2022-12-20T10:02:20;24.63;;;10.75;;
67065;SDS011;53978;43.846;25.952;2022-12-20T10:04:52;20.10;;;8.93;;
67065;SDS011;53978;43.846;25.952;2022-12-20T10:21:57;19.58;;;10.43;;
67065;SDS011;53978;43.846;25.952;2022-12-20T10:24:55;19.80;;;9.25;;
67065;SDS011;53978;43.846;25.952;2022-12-20T10:27:42;14.95;;;7.38;;
67065;SDS011;53978;43.846;25.952;2022-12-20T10:30:14;17.10;;;8.18;;
67065;SDS011;53978;43.846;25.952;2022-12-20T10:32:47;17.63;;;8.50;;
67065;SDS011;53978;43.846;25.952;2022-12-20T10:35:36;16.10;;;8.18;;
67065;SDS011;53978;43.846;25.952;2022-12-20T10:38:06;18.92;;;8.00;;
67065;SDS011;53978;43.846;25.952;2022-12-20T10:40:40;17.20;;;7.45;;
67065;SDS011;53978;43.846;25.952;2022-12-20T10:43:20;16.80;;;8.23;;
67065;SDS011;53978;43.846;25.952;2022-12-20T10:46:00;17.45;;;7.80;;
67065;SDS011;53978;43.846;25.952;2022-12-20T10:51:02;16.80;;;8.25;;
67065;SDS011;53978;43.846;25.952;2022-12-20T10:53:34;14.43;;;7.53;;
67065;SDS011;53978;43.846;25.952;2022-12-20T10:56:34;15.27;;;8.00;;
67065;SDS011;53978;43.846;25.952;2022-12-20T11:01:48;12.68;;;6.90;;
67065;SDS011;53978;43.846;25.952;2022-12-20T11:04:24;19.10;;;7.88;;
67065;SDS011;53978;43.846;25.952;2022-12-20T11:07:03;19.10;;;7.60;;
67065;SDS011;53978;43.846;25.952;2022-12-20T11:09:54;16.45;;;7.65;;
67065;SDS011;53978;43.846;25.952;2022-12-20T11:12:21;21.35;;;8.05;;
67065;SDS011;53978;43.846;25.952;2022-12-20T11:14:47;13.93;;;6.95;;
67065;SDS011;53978;43.846;25.952;2022-12-20T11:22:28;15.52;;;8.10;;
67065;SDS011;53978;43.846;25.952;2022-12-20T11:33:29;20.95;;;9.63;;
67065;SDS011;53978;43.846;25.952;2022-12-20T11:36:12;17.70;;;8.15;;
67065;SDS011;53978;43.846;25.952;2022-12-20T11:38:57;16.40;;;8.15;;
67065;SDS011;53978;43.846;25.952;2022-12-20T11:41:47;15.55;;;6.97;;
67065;SDS011;53978;43.846;25.952;2022-12-20T11:50:38;18.77;;;8.05;;
67065;SDS011;53978;43.846;25.952;2022-12-20T11:53:27;20.70;;;8.15;;
67065;SDS011;53978;43.846;25.952;2022-12-20T11:56:04;20.85;;;8.88;;
67065;SDS011;53978;43.846;25.952;2022-12-20T11:58:49;20.67;;;8.63;;
67065;SDS011;53978;43.846;25.952;2022-12-20T12:01:17;17.65;;;9.35;;
67065;SDS011;53978;43.846;25.952;2022-12-20T12:03:48;27.65;;;10.38;;
67065;SDS011;53978;43.846;25.952;2022-12-20T12:06:29;22.17;;;10.00;;
67065;SDS011;53978;43.846;25.952;2022-12-20T12:09:04;25.20;;;9.93;;
67065;SDS011;53978;43.846;25.952;2022-12-20T12:11:31;19.52;;;9.25;;
67065;SDS011;53978;43.846;25.952;2022-12-20T12:14:00;26.02;;;9.65;;
67065;SDS011;53978;43.846;25.952;2022-12-20T12:16:28;18.90;;;9.43;;
67065;SDS011;53978;43.846;25.952;2022-12-20T12:21:27;18.23;;;7.60;;
67065;SDS011;53978;43.846;25.952;2022-12-20T12:26:36;22.23;;;10.32;;
67065;SDS011;53978;43.846;25.952;2022-12-20T12:29:15;20.63;;;9.07;;
67065;SDS011;53978;43.846;25.952;2022-12-20T12:37:12;24.23;;;9.95;;
67065;SDS011;53978;43.846;25.952;2022-12-20T12:45:04;30.98;;;11.50;;
67065;SDS011;53978;43.846;25.952;2022-12-20T12:47:53;23.75;;;10.65;;
67065;SDS011;53978;43.846;25.952;2022-12-20T12:50:26;26.33;;;12.43;;
67065;SDS011;53978;43.846;25.952;2022-12-20T12:52:57;26.85;;;11.65;;
67065;SDS011;53978;43.846;25.952;2022-12-20T12:58:33;23.98;;;10.60;;
67065;SDS011;53978;43.846;25.952;2022-12-20T13:11:36;27.08;;;11.50;;
67065;SDS011;53978;43.846;25.952;2022-12-20T13:16:47;28.17;;;10.80;;
67065;SDS011;53978;43.846;25.952;2022-12-20T13:21:52;25.33;;;10.60;;
67065;SDS011;53978;43.846;25.952;2022-12-20T13:27:01;29.25;;;11.05;;
67065;SDS011;53978;43.846;25.952;2022-12-20T13:29:32;28.60;;;10.93;;
67065;SDS011;53978;43.846;25.952;2022-12-20T13:31:58;24.27;;;11.13;;
67065;SDS011;53978;43.846;25.952;2022-12-20T13:37:28;25.55;;;11.40;;
67065;SDS011;53978;43.846;25.952;2022-12-20T13:40:56;26.23;;;11.55;;
67065;SDS011;53978;43.846;25.952;2022-12-20T13:45:47;26.58;;;11.18;;
67065;SDS011;53978;43.846;25.952;2022-12-20T13:48:24;32.20;;;13.27;;
67065;SDS011;53978;43.846;25.952;2022-12-20T13:50:52;27.58;;;12.05;;
67065;SDS011;53978;43.846;25.952;2022-12-20T13:53:20;26.67;;;10.05;;
67065;SDS011;53978;43.846;25.952;2022-12-20T13:55:52;28.55;;;11.52;;
67065;SDS011;53978;43.846;25.952;2022-12-20T13:58:25;27.02;;;11.80;;
67065;SDS011;53978;43.846;25.952;2022-12-20T14:00:52;24.33;;;11.10;;
67065;SDS011;53978;43.846;25.952;2022-12-20T14:03:25;24.15;;;10.13;;
67065;SDS011;53978;43.846;25.952;2022-12-20T14:05:55;27.90;;;11.90;;
67065;SDS011;53978;43.846;25.952;2022-12-20T14:08:37;30.40;;;11.70;;
67065;SDS011;53978;43.846;25.952;2022-12-20T14:11:18;27.13;;;10.82;;
67065;SDS011;53978;43.846;25.952;2022-12-20T14:14:21;23.95;;;10.88;;
67065;SDS011;53978;43.846;25.952;2022-12-20T14:16:39;21.50;;;10.85;;
67065;SDS011;53978;43.846;25.952;2022-12-20T14:19:05;24.67;;;11.32;;
67065;SDS011;53978;43.846;25.952;2022-12-20T14:21:37;19.67;;;9.82;;
67065;SDS011;53978;43.846;25.952;2022-12-20T14:24:05;23.58;;;10.77;;
67065;SDS011;53978;43.846;25.952;2022-12-20T14:26:40;22.00;;;10.20;;
67065;SDS011;53978;43.846;25.952;2022-12-20T14:29:11;21.05;;;10.43;;
67065;SDS011;53978;43.846;25.952;2022-12-20T14:31:41;26.42;;;10.52;;
67065;SDS011;53978;43.846;25.952;2022-12-20T14:36:40;34.38;;;10.88;;
67065;SDS011;53978;43.846;25.952;2022-12-20T14:39:20;24.90;;;10.82;;
67065;SDS011;53978;43.846;25.952;2022-12-20T14:44:23;23.88;;;10.77;;
67065;SDS011;53978;43.846;25.952;2022-12-20T14:47:35;26.77;;;9.80;;
67065;SDS011;53978;43.846;25.952;2022-12-20T14:49:39;22.25;;;10.27;;
67065;SDS011;53978;43.846;25.952;2022-12-20T14:54:48;23.30;;;10.20;;
67065;SDS011;53978;43.846;25.952;2022-12-20T14:57:36;31.95;;;10.75;;
67065;SDS011;53978;43.846;25.952;2022-12-20T15:11:25;25.30;;;10.85;;
67065;SDS011;53978;43.846;25.952;2022-12-20T15:16:04;23.77;;;10.95;;
67065;SDS011;53978;43.846;25.952;2022-12-20T15:18:36;23.98;;;11.93;;
67065;SDS011;53978;43.846;25.952;2022-12-20T15:21:02;26.65;;;11.20;;
67065;SDS011;53978;43.846;25.952;2022-12-20T15:23:29;23.45;;;10.10;;
67065;SDS011;53978;43.846;25.952;2022-12-20T15:25:54;21.77;;;10.70;;
67065;SDS011;53978;43.846;25.952;2022-12-20T15:28:23;26.73;;;10.13;;
67065;SDS011;53978;43.846;25.952;2022-12-20T15:30:49;20.35;;;9.90;;
67065;SDS011;53978;43.846;25.952;2022-12-20T15:33:25;20.92;;;9.38;;
67065;SDS011;53978;43.846;25.952;2022-12-20T15:35:53;17.08;;;8.05;;
67065;SDS011;53978;43.846;25.952;2022-12-20T15:38:22;22.48;;;9.15;;
67065;SDS011;53978;43.846;25.952;2022-12-20T15:40:53;19.02;;;9.10;;
67065;SDS011;53978;43.846;25.952;2022-12-20T15:43:20;20.20;;;8.95;;
67065;SDS011;53978;43.846;25.952;2022-12-20T15:45:48;19.98;;;8.85;;
67065;SDS011;53978;43.846;25.952;2022-12-20T15:48:21;18.75;;;8.48;;
67065;SDS011;53978;43.846;25.952;2022-12-20T15:50:48;15.77;;;8.65;;
67065;SDS011;53978;43.846;25.952;2022-12-20T15:53:18;26.63;;;10.40;;
67065;SDS011;53978;43.846;25.952;2022-12-20T15:55:48;22.10;;;10.75;;
67065;SDS011;53978;43.846;25.952;2022-12-20T15:58:14;22.77;;;9.82;;
67065;SDS011;53978;43.846;25.952;2022-12-20T16:00:40;23.20;;;10.15;;
67065;SDS011;53978;43.846;25.952;2022-12-20T16:03:20;18.90;;;8.60;;
67065;SDS011;53978;43.846;25.952;2022-12-20T16:05:47;22.15;;;9.10;;
67065;SDS011;53978;43.846;25.952;2022-12-20T16:08:15;22.20;;;9.52;;
67065;SDS011;53978;43.846;25.952;2022-12-20T16:10:43;16.63;;;9.00;;
67065;SDS011;53978;43.846;25.952;2022-12-20T16:13:13;17.98;;;7.90;;
67065;SDS011;53978;43.846;25.952;2022-12-20T16:15:44;17.35;;;9.02;;
67065;SDS011;53978;43.846;25.952;2022-12-20T16:18:12;17.35;;;8.75;;
67065;SDS011;53978;43.846;25.952;2022-12-20T16:20:40;22.10;;;9.45;;
67065;SDS011;53978;43.846;25.952;2022-12-20T16:23:10;12.68;;;7.30;;
67065;SDS011;53978;43.846;25.952;2022-12-20T16:25:43;20.98;;;9.07;;
67065;SDS011;53978;43.846;25.952;2022-12-20T16:28:09;22.42;;;8.38;;
67065;SDS011;53978;43.846;25.952;2022-12-20T16:30:38;22.55;;;9.43;;
67065;SDS011;53978;43.846;25.952;2022-12-20T16:33:03;22.90;;;9.73;;